Profiler II Survey — CZ2496 — position and weather

sailwx.info

Track history (hours):
 
Tides and Currents Weather Stations Pressure Air Temp Water Temp Dewpoint Dewpoint Depression Visibility Wind Speed Wind Dir Waves Ship Positions

Profiler II Survey

Last reported at 2014-Jul-24 21:07 UTC. Time now 2014-Jul-26 03:11 UTC.
Position N 49°12' W 122°55'.

Length 11 m.

Type: Dredging. MMSI: 316002054.

Date/timePositionNaut miles runAvg speedWind from/ knotsBaromVisibWave heightAir tempDewpointWater temp
2014-Jul-24 21:07N 49°12' W 122°55'1 1.8
2014-Jul-24 20:33N 49°11' W 122°55'1 0.9
2014-Jul-24 19:32N 49°11' W 122°55'0 0.3
2014-Jul-24 18:30N 49°12' W 122°55'1 0.6
2014-Jul-24 17:33N 49°11' W 122°55'0 0.3
2014-Jul-24 16:34N 49°11' W 122°55'11 0.6
2014-Jul-23 20:31N 49°07' W 123°12'1 0.7
2014-Jul-23 19:33N 49°08' W 123°13'1 0.6
2014-Jul-23 18:33N 49°07' W 123°12'0 0.1
2014-Jul-23 17:32N 49°07' W 123°12'0 0.2
2014-Jul-23 16:33N 49°07' W 123°12'0 0.5
2014-Jul-23 15:33N 49°07' W 123°11'0 0.0
2014-Jul-22 20:11N 49°07' W 123°11'4 7.0
2014-Jul-22 19:33N 49°06' W 123°18'0 0.1
2014-Jul-22 18:32N 49°06' W 123°18'0 0.4
2014-Jul-22 17:33N 49°06' W 123°18'0 0.4
2014-Jul-22 16:33N 49°06' W 123°19'4 4.5
2014-Jul-22 15:33N 49°08' W 123°12'1 0.0
2014-Jul-21 20:25N 49°07' W 123°11'111.3
2014-Jul-21 20:18N 49°08' W 123°13'3 3.9
2014-Jul-21 19:33N 49°07' W 123°17'1 0.5
2014-Jul-21 18:30N 49°07' W 123°17'1 0.7
2014-Jul-21 17:34N 49°07' W 123°16'1 0.5
2014-Jul-21 16:33N 49°07' W 123°16'  
2014-Jul-17 20:34N 49°08' W 123°13'0 0.5
2014-Jul-17 19:33N 49°08' W 123°12'0 0.3
2014-Jul-17 18:33N 49°08' W 123°13'0 0.3
2014-Jul-17 17:33N 49°07' W 123°12'0 0.3
2014-Jul-17 16:33N 49°07' W 123°12'1 0.0
2014-Jul-16 20:31N 49°07' W 123°11'1111.2
2014-Jul-16 19:32N 49°11' W 122°55'0 0.2
2014-Jul-16 18:31N 49°11' W 122°55'0 0.2
2014-Jul-16 17:30N 49°11' W 122°55'0 0.1
2014-Jul-16 16:33N 49°11' W 122°55'1111.1
2014-Jul-16 15:33N 49°07' W 123°11'1 0.1
2014-Jul-15 21:33N 49°08' W 123°13'2 2.0
2014-Jul-15 20:32N 49°07' W 123°16'0 0.0
2014-Jul-15 19:33N 49°07' W 123°16'0 0.1
2014-Jul-15 18:33N 49°07' W 123°16'0 0.4
2014-Jul-15 17:33N 49°07' W 123°17'1 0.6
2014-Jul-15 16:33N 49°07' W 123°17'7 7.1
2014-Jul-15 15:33N 49°07' W 123°06'  
Track history (hours):
 
Tides and Currents Weather Stations Pressure Air Temp Water Temp Dewpoint Dewpoint Depression Visibility Wind Speed Wind Dir Waves Ship Positions

Profiler II Survey

Last reported at 2014-Jul-24 21:07 UTC. Time now 2014-Jul-26 03:11 UTC.
Position N 49°12' W 122°55'.

Length 11 m.

Type: Dredging. MMSI: 316002054.

Date/timePositionNaut miles runAvg speedWind from/ knotsBaromVisibWave heightAir tempDewpointWater temp
2014-Jul-24 21:07N 49°12' W 122°55'1 1.8
2014-Jul-24 20:33N 49°11' W 122°55'1 0.9
2014-Jul-24 19:32N 49°11' W 122°55'0 0.3
2014-Jul-24 18:30N 49°12' W 122°55'1 0.6
2014-Jul-24 17:33N 49°11' W 122°55'0 0.3
2014-Jul-24 16:34N 49°11' W 122°55'11 0.6
2014-Jul-23 20:31N 49°07' W 123°12'1 0.7
2014-Jul-23 19:33N 49°08' W 123°13'1 0.6
2014-Jul-23 18:33N 49°07' W 123°12'0 0.1
2014-Jul-23 17:32N 49°07' W 123°12'0 0.2
2014-Jul-23 16:33N 49°07' W 123°12'0 0.5
2014-Jul-23 15:33N 49°07' W 123°11'0 0.0
2014-Jul-22 20:11N 49°07' W 123°11'4 7.0
2014-Jul-22 19:33N 49°06' W 123°18'0 0.1
2014-Jul-22 18:32N 49°06' W 123°18'0 0.4
2014-Jul-22 17:33N 49°06' W 123°18'0 0.4
2014-Jul-22 16:33N 49°06' W 123°19'4 4.5
2014-Jul-22 15:33N 49°08' W 123°12'1 0.0
2014-Jul-21 20:25N 49°07' W 123°11'111.3
2014-Jul-21 20:18N 49°08' W 123°13'3 3.9
2014-Jul-21 19:33N 49°07' W 123°17'1 0.5
2014-Jul-21 18:30N 49°07' W 123°17'1 0.7
2014-Jul-21 17:34N 49°07' W 123°16'1 0.5
2014-Jul-21 16:33N 49°07' W 123°16'  
2014-Jul-17 20:34N 49°08' W 123°13'0 0.5
2014-Jul-17 19:33N 49°08' W 123°12'0 0.3
2014-Jul-17 18:33N 49°08' W 123°13'0 0.3
2014-Jul-17 17:33N 49°07' W 123°12'0 0.3
2014-Jul-17 16:33N 49°07' W 123°12'1 0.0
2014-Jul-16 20:31N 49°07' W 123°11'1111.2
2014-Jul-16 19:32N 49°11' W 122°55'0 0.2
2014-Jul-16 18:31N 49°11' W 122°55'0 0.2
2014-Jul-16 17:30N 49°11' W 122°55'0 0.1
2014-Jul-16 16:33N 49°11' W 122°55'1111.1
2014-Jul-16 15:33N 49°07' W 123°11'1 0.1
2014-Jul-15 21:33N 49°08' W 123°13'2 2.0
2014-Jul-15 20:32N 49°07' W 123°16'0 0.0
2014-Jul-15 19:33N 49°07' W 123°16'0 0.1
2014-Jul-15 18:33N 49°07' W 123°16'0 0.4
2014-Jul-15 17:33N 49°07' W 123°17'1 0.6
2014-Jul-15 16:33N 49°07' W 123°17'7 7.1
2014-Jul-15 15:33N 49°07' W 123°06'  

Dump ship's entire track history